Time;durP1;ratioP1;P1;durP2;ratioP2;P2;SDS_P1;SDS_P2;PMS_P1;PMS_P2;Temp;Humidity;BMP_temperature;BMP_pressure;BME280_temperature;BME280_humidity;BME280_pressure;Samples;Min_cycle;Max_cycle;Signal;HPM_P1;HPM_P2
2023/07/15 00:00:00;;;;;;;0.10;0.10;;;;;;;;;;5030315;28;20052;-82
2023/07/15 00:02:32;;;;;;;0.08;0.08;;;;;;;;;;5046085;28;20064;-82
2023/07/15 00:05:04;;;;;;;0.10;0.10;;;;;;;;;;5055360;28;20025;-82
2023/07/15 00:07:29;;;;;;;0.10;0.10;;;;;;;;;;5046975;28;20033;-82
2023/07/15 00:09:58;;;;;;;0.10;0.10;;;;;;;;;;5050659;28;20120;-82
2023/07/15 00:12:23;;;;;;;0.10;0.10;;;;;;;;;;5042448;28;20037;-84
2023/07/15 00:14:48;;;;;;;0.10;0.10;;;;;;;19.88;nan;99724.59;5043962;28;20413;-83
2023/07/15 00:17:14;;;;;;;0.10;0.10;;;;;;;;;;5049651;28;20107;-82
2023/07/15 00:19:39;;;;;;;0.10;0.10;;;;;;;;;;5061816;28;20104;-83
2023/07/15 00:22:09;;;;;;;0.10;0.10;;;;;;;19.97;nan;99761.78;5063704;28;20038;-82
2023/07/15 00:24:34;;;;;;;0.10;0.10;;;;;;;;;;5062791;28;20039;-82
2023/07/15 00:27:00;;;;;;;0.10;0.10;;;;;;;19.95;nan;99724.47;5057847;28;20033;-82
2023/07/15 00:29:25;;;;;;;0.10;0.10;;;;;;;;;;5043435;28;20053;-83
2023/07/15 00:31:50;;;;;;;0.10;0.10;;;;;;;;;;5052049;28;20630;-83
2023/07/15 00:34:15;;;;;;;0.10;0.10;;;;;;;19.83;nan;99782.66;5053158;28;20040;-83
2023/07/15 00:36:40;;;;;;;0.10;0.10;;;;;;;;;;5059341;28;20064;-84
2023/07/15 00:39:09;;;;;;;0.10;0.10;;;;;;;19.79;nan;99722.47;5057270;28;20270;-82
2023/07/15 00:41:35;;;;;;;0.10;0.10;;;;;;;19.74;nan;99736.59;5064156;28;20303;-84
2023/07/15 00:44:03;;;;;;;0.00;0.00;;;;;;;19.73;nan;99740.31;5048308;28;20089;-83
2023/07/15 00:46:48;;;;;;;0.10;0.10;;;;;;;;;;5041245;28;20049;-84
2023/07/15 00:49:17;;;;;;;0.00;0.00;;;;;;;19.80;nan;99721.41;5055886;28;20048;-82
2023/07/15 00:51:48;;;;;;;0.10;0.10;;;;;;;19.81;nan;99705.09;5045213;28;20112;-83
2023/07/15 00:54:17;;;;;;;0.10;0.10;;;;;;;;;;5051641;28;20033;-83
2023/07/15 00:56:47;;;;;;;0.10;0.10;;;;;;;19.72;nan;99685.84;5056071;28;20033;-84
2023/07/15 00:59:16;;;;;;;0.10;0.10;;;;;;;19.67;nan;99719.75;5041248;28;20413;-82
2023/07/15 01:01:44;;;;;;;0.10;0.10;;;;;;;19.60;nan;99837.84;5056866;28;20038;-84
2023/07/15 01:04:12;;;;;;;0.10;0.10;;;;;;;;;;5055340;28;20033;-83
2023/07/15 01:06:37;;;;;;;0.10;0.10;;;;;;;;;;5058457;28;20059;-83
2023/07/15 01:09:09;;;;;;;0.10;0.10;;;;;;;19.72;nan;99723.41;5059926;28;20041;-84
2023/07/15 01:11:35;;;;;;;0.10;0.10;;;;;;;;;;5035140;28;20056;-83
2023/07/15 01:14:00;;;;;;;0.10;0.10;;;;;;;;;;5031383;28;20037;-84
2023/07/15 01:16:27;;;;;;;0.10;0.10;;;;;;;19.81;nan;99721.19;5069128;28;20030;-84
2023/07/15 01:18:57;;;;;;;0.10;0.10;;;;;;;19.88;nan;99723.78;5051530;28;20033;-84
2023/07/15 01:21:22;;;;;;;0.10;0.10;;;;;;;20.03;nan;99734.03;5057313;28;20037;-82
2023/07/15 01:23:47;;;;;;;0.10;0.10;;;;;;;20.23;nan;99729.13;5057390;28;20029;-84
2023/07/15 01:26:13;;;;;;;0.10;0.10;;;;;;;;;;5058331;28;20063;-83
2023/07/15 01:28:38;;;;;;;0.10;0.10;;;;;;;;;;5056189;28;20037;-83
2023/07/15 01:31:03;;;;;;;0.10;0.10;;;;;;;;;;5047728;28;20132;-82
2023/07/15 01:33:29;;;;;;;0.10;0.10;;;;;;;;;;5058698;28;20060;-84
2023/07/15 01:35:55;;;;;;;0.00;0.00;;;;;;;;;;5054655;28;20032;-84
2023/07/15 01:38:20;;;;;;;0.10;0.10;;;;;;;;;;5050131;28;20043;-82
2023/07/15 01:40:45;;;;;;;0.00;0.00;;;;;;;;;;5057782;28;20267;-83
2023/07/15 01:43:13;;;;;;;0.10;0.10;;;;;;;21.45;nan;99723.75;5047052;28;20124;-83
2023/07/15 01:45:39;;;;;;;0.10;0.10;;;;;;;21.71;nan;99750.03;5050657;28;20069;-83
2023/07/15 01:48:05;;;;;;;0.10;0.10;;;;;;;21.91;nan;99748.75;5054543;28;20053;-82
2023/07/15 01:50:31;;;;;;;0.00;0.00;;;;;;;22.08;nan;99738.75;5041373;28;20083;-82
2023/07/15 01:52:57;;;;;;;0.10;0.10;;;;;;;;;;5057745;28;20036;-84
2023/07/15 01:55:23;;;;;;;0.10;0.10;;;;;;;;;;5061142;28;20105;-83
2023/07/15 01:57:48;;;;;;;0.10;0.10;;;;;;;22.32;nan;99733.22;5053153;28;20606;-84
2023/07/15 02:00:16;;;;;;;0.10;0.10;;;;;;;;;;5054886;28;20037;-83
2023/07/15 02:02:42;;;;;;;0.10;0.10;;;;;;;;;;5060248;28;20086;-83
2023/07/15 02:05:07;;;;;;;0.10;0.10;;;;;;;22.23;nan;99735.50;5042305;28;20065;-83
2023/07/15 02:07:33;;;;;;;0.10;0.10;;;;;;;;;;5063706;28;20129;-84
2023/07/15 02:09:58;;;;;;;0.10;0.10;;;;;;;22.12;nan;99745.28;5058542;28;20033;-83
2023/07/15 02:12:23;;;;;;;0.00;0.00;;;;;;;22.20;nan;99736.81;5057619;28;20059;-84
2023/07/15 02:14:49;;;;;;;0.00;0.00;;;;;;;;;;5054963;28;20055;-84
2023/07/15 02:17:17;;;;;;;0.10;0.10;;;;;;;22.15;nan;99717.06;5058421;28;20039;-83
2023/07/15 02:19:43;;;;;;;0.00;0.00;;;;;;;22.03;nan;99699.13;5048081;28;20055;-83
2023/07/15 02:22:09;;;;;;;0.00;0.00;;;;;;;21.91;nan;99711.06;5040430;28;20034;-84
2023/07/15 02:24:34;;;;;;;0.10;0.10;;;;;;;;;;5071548;28;20184;-84
2023/07/15 02:26:59;;;;;;;0.07;0.07;;;;;;;;;;5052547;28;20071;-84
2023/07/15 02:29:24;;;;;;;0.10;0.10;;;;;;;21.63;nan;99715.47;5046521;28;20288;-82
2023/07/15 02:31:49;;;;;;;0.10;0.10;;;;;;;;;;5039301;28;20048;-83
2023/07/15 02:34:16;;;;;;;0.10;0.10;;;;;;;;;;5050260;28;20112;-83
2023/07/15 02:36:41;;;;;;;0.10;0.10;;;;;;;21.29;nan;99685.81;5052435;28;20037;-83
2023/07/15 02:39:08;;;;;;;0.10;0.10;;;;;;;21.27;nan;99708.63;5043578;28;20034;-83
2023/07/15 02:41:33;;;;;;;0.10;0.10;;;;;;;21.23;nan;99708.28;5043378;28;20041;-84
2023/07/15 02:43:59;;;;;;;0.10;0.10;;;;;;;21.19;nan;99710.66;5054171;28;20041;-84
2023/07/15 02:46:24;;;;;;;0.00;0.00;;;;;;;21.16;nan;99704.94;5033355;28;20038;-83
2023/07/15 02:48:49;;;;;;;0.00;0.00;;;;;;;;;;5060236;28;20033;-83
2023/07/15 02:51:15;;;;;;;0.00;0.00;;;;;;;21.00;nan;99682.38;5050077;28;20041;-84
2023/07/15 02:53:40;;;;;;;0.10;0.10;;;;;;;;;;5046657;28;20255;-83
2023/07/15 02:56:06;;;;;;;0.10;0.10;;;;;;;20.81;nan;99778.47;5058416;28;20784;-83
2023/07/15 02:58:31;;;;;;;0.10;0.10;;;;;;;;;;5048914;28;20029;-82
2023/07/15 03:00:56;;;;;;;0.10;0.10;;;;;;;;;;5057623;28;20030;-83
2023/07/15 03:03:21;;;;;;;0.00;0.00;;;;;;;20.63;nan;99680.03;5060026;28;20512;-82
2023/07/15 03:05:47;;;;;;;0.10;0.10;;;;;;;;;;5049796;28;20034;-82
2023/07/15 03:08:12;;;;;;;0.10;0.10;;;;;;;;;;5050415;28;20037;-83
2023/07/15 03:10:38;;;;;;;0.10;0.10;;;;;;;20.51;nan;99671.16;5056030;28;21632;-84
2023/07/15 03:13:04;;;;;;;0.10;0.10;;;;;;;20.47;nan;99670.00;5056916;28;20034;-82
2023/07/15 03:15:30;;;;;;;0.10;0.10;;;;;;;20.40;nan;99659.41;5052393;28;20584;-85
2023/07/15 03:17:55;;;;;;;0.10;0.10;;;;;;;;;;5038980;28;20034;-83
2023/07/15 03:20:20;;;;;;;0.10;0.10;;;;;;;20.23;nan;99804.28;5044498;28;20033;-83
2023/07/15 03:22:47;;;;;;;0.00;0.00;;;;;;;20.21;nan;99827.03;5054010;28;20264;-84
2023/07/15 03:25:14;;;;;;;0.00;0.00;;;;;;;20.11;nan;99817.69;5055088;28;20049;-84
2023/07/15 03:27:40;;;;;;;0.10;0.10;;;;;;;20.07;nan;99818.38;5044570;28;20037;-84
2023/07/15 03:30:07;;;;;;;0.10;0.10;;;;;;;20.05;nan;99818.63;5022602;28;20033;-83
2023/07/15 03:32:34;;;;;;;0.10;0.10;;;;;;;20.03;nan;99812.69;5055192;28;20036;-83
2023/07/15 03:35:00;;;;;;;0.10;0.10;;;;;;;20.00;nan;99815.00;5054916;28;20041;-84
2023/07/15 03:37:25;;;;;;;0.10;0.10;;;;;;;19.97;nan;99815.47;5049906;28;20509;-83
2023/07/15 03:39:52;;;;;;;0.10;0.10;;;;;;;19.90;nan;99808.34;5049131;28;20037;-86
2023/07/15 03:42:17;;;;;;;0.10;0.10;;;;;;;19.87;nan;99800.75;5053610;28;20303;-83
2023/07/15 03:44:42;;;;;;;0.00;0.00;;;;;;;19.84;nan;99800.41;5041382;28;20034;-84
2023/07/15 03:47:08;;;;;;;0.10;0.10;;;;;;;19.73;nan;99812.72;5061477;28;20124;-84
2023/07/15 03:49:33;;;;;;;0.10;0.10;;;;;;;19.62;nan;99803.59;5056698;28;20040;-83
2023/07/15 03:51:58;;;;;;;0.10;0.10;;;;;;;19.60;nan;99811.03;5061318;28;20419;-84
2023/07/15 03:54:24;;;;;;;0.10;0.10;;;;;;;19.53;nan;99816.50;5041869;28;20061;-85
2023/07/15 03:56:49;;;;;;;0.00;0.00;;;;;;;19.49;nan;99814.50;5059298;28;20033;-83
2023/07/15 03:59:14;;;;;;;0.10;0.10;;;;;;;19.43;nan;99804.69;5044978;28;20038;-83
2023/07/15 04:01:40;;;;;;;0.10;0.10;;;;;;;19.43;nan;99800.16;5056831;28;20300;-82
2023/07/15 04:04:08;;;;;;;0.03;0.03;;;;;;;19.47;nan;99801.34;5045466;28;20040;-83
2023/07/15 04:06:34;;;;;;;0.10;0.10;;;;;;;19.49;nan;99801.09;5048605;28;20140;-83
2023/07/15 04:08:59;;;;;;;0.10;0.10;;;;;;;19.50;nan;99794.69;5054255;28;20070;-83
2023/07/15 04:11:25;;;;;;;0.10;0.10;;;;;;;19.52;nan;99796.09;5059910;28;20124;-82
2023/07/15 04:13:50;;;;;;;0.10;0.10;;;;;;;19.55;nan;99799.38;5053691;28;20701;-82
2023/07/15 04:16:16;;;;;;;0.10;0.10;;;;;;;19.59;nan;99805.88;5059059;28;20275;-82
2023/07/15 04:18:42;;;;;;;0.10;0.10;;;;;;;19.53;nan;99813.81;5057042;28;20295;-84
2023/07/15 04:21:08;;;;;;;0.10;0.10;;;;;;;19.53;nan;99810.31;5058325;28;20084;-82
2023/07/15 04:23:34;;;;;;;0.10;0.10;;;;;;;19.57;nan;99810.66;5058029;28;20055;-83
2023/07/15 04:25:59;;;;;;;0.10;0.10;;;;;;;19.54;nan;99817.31;5043670;28;20033;-83
2023/07/15 04:28:24;;;;;;;0.10;0.10;;;;;;;19.57;nan;99813.34;5052299;28;20092;-82
2023/07/15 04:30:50;;;;;;;0.10;0.10;;;;;;;19.58;nan;99823.03;5055586;28;20044;-83
2023/07/15 04:33:16;;;;;;;0.10;0.10;;;;;;;19.57;nan;99814.19;5050195;28;20042;-84
2023/07/15 04:35:41;;;;;;;0.10;0.10;;;;;;;19.58;nan;99813.13;5051234;28;20033;-83
2023/07/15 04:38:06;;;;;;;0.10;0.10;;;;;;;19.70;nan;99811.31;5054942;28;20037;-82
2023/07/15 04:40:32;;;;;;;0.10;0.10;;;;;;;19.79;nan;99814.50;5042485;28;20052;-83
2023/07/15 04:42:57;;;;;;;0.10;0.10;;;;;;;19.91;nan;99817.22;5048702;28;20359;-85
2023/07/15 04:45:22;;;;;;;0.10;0.10;;;;;;;19.94;nan;99820.25;5044064;28;20037;-83
2023/07/15 04:47:48;;;;;;;0.10;0.10;;;;;;;19.99;nan;99829.47;5047382;28;20112;-83
2023/07/15 04:50:14;;;;;;;0.10;0.10;;;;;;;20.02;nan;99818.28;5040214;28;20046;-84
2023/07/15 04:52:39;;;;;;;0.10;0.10;;;;;;;19.98;nan;99825.16;5057742;28;20246;-81
2023/07/15 04:55:05;;;;;;;0.10;0.10;;;;;;;19.98;nan;99823.28;5056768;28;20041;-82
2023/07/15 04:57:30;;;;;;;0.03;0.03;;;;;;;20.10;nan;99824.13;5051160;28;20843;-82
2023/07/15 04:59:56;;;;;;;0.10;0.10;;;;;;;20.25;nan;99834.41;5051217;28;20417;-85
2023/07/15 05:02:21;;;;;;;0.10;0.10;;;;;;;20.40;nan;99830.44;5047895;28;20021;-83
2023/07/15 05:04:46;;;;;;;0.10;0.10;;;;;;;20.52;nan;99833.94;5056404;28;20033;-83
2023/07/15 05:07:12;;;;;;;0.10;0.10;;;;;;;20.72;nan;99822.88;5047136;28;20037;-84
2023/07/15 05:09:37;;;;;;;0.10;0.10;;;;;;;20.91;nan;99831.63;5063393;28;20854;-82
2023/07/15 05:12:03;;;;;;;0.10;0.10;;;;;;;21.09;nan;99839.50;5055676;28;20040;-82
2023/07/15 05:14:28;;;;;;;0.10;0.10;;;;;;;21.31;nan;99826.25;5053435;28;20065;-82
2023/07/15 05:16:53;;;;;;;0.10;0.10;;;;;;;21.53;nan;99828.28;5053235;28;20045;-82
2023/07/15 05:19:19;;;;;;;0.10;0.10;;;;;;;21.72;nan;99827.00;5055150;28;20041;-83
2023/07/15 05:21:44;;;;;;;0.10;0.10;;;;;;;21.87;nan;99836.41;5041201;28;20522;-84
2023/07/15 05:24:09;;;;;;;0.10;0.10;;;;;;;22.02;nan;99831.28;5051531;28;20041;-84
2023/07/15 05:26:34;;;;;;;0.05;0.05;;;;;;;22.12;nan;99831.47;5047025;28;20126;-84
2023/07/15 05:29:00;;;;;;;0.10;0.10;;;;;;;22.22;nan;99825.44;5045433;28;20029;-84
2023/07/15 05:31:25;;;;;;;0.10;0.10;;;;;;;22.38;nan;99818.41;5051282;28;20103;-84
2023/07/15 05:33:50;;;;;;;0.10;0.10;;;;;;;22.54;nan;99814.88;5047729;28;20041;-83
2023/07/15 05:36:16;;;;;;;0.10;0.10;;;;;;;22.69;nan;99823.16;5045206;28;20037;-83
2023/07/15 05:38:43;;;;;;;0.10;0.10;;;;;;;22.89;nan;99819.91;5038857;28;20056;-85
2023/07/15 05:41:11;;;;;;;0.10;0.10;;;;;;;23.12;nan;99820.78;5046357;28;20029;-84
2023/07/15 05:43:37;;;;;;;0.00;0.00;;;;;;;23.31;nan;99813.97;5058628;28;20025;-83
2023/07/15 05:46:02;;;;;;;0.00;0.00;;;;;;;23.56;nan;99814.50;5043069;28;20052;-85
2023/07/15 05:48:27;;;;;;;0.10;0.10;;;;;;;23.86;nan;99811.28;5052531;28;20435;-82
2023/07/15 05:50:52;;;;;;;0.00;0.00;;;;;;;24.25;nan;99805.66;5047323;28;20029;-82
2023/07/15 05:53:18;;;;;;;0.00;0.00;;;;;;;24.68;nan;99809.97;5052416;28;20685;-82
2023/07/15 05:55:43;;;;;;;0.00;0.00;;;;;;;25.17;nan;99815.09;5058081;28;20264;-82
2023/07/15 05:58:11;;;;;;;0.00;0.00;;;;;;;25.75;nan;99812.22;5037865;28;20071;-84
2023/07/15 06:00:38;;;;;;;0.00;0.00;;;;;;;26.34;nan;99808.16;5058205;28;20259;-84
2023/07/15 06:03:03;;;;;;;0.00;0.00;;;;;;;26.92;nan;99796.09;5045138;28;20041;-83
2023/07/15 06:05:29;;;;;;;0.00;0.00;;;;;;;27.52;nan;99802.28;5057486;28;20106;-84
2023/07/15 06:07:54;;;;;;;0.00;0.00;;;;;;;28.06;nan;99797.81;5044552;28;20025;-82
2023/07/15 06:10:19;;;;;;;0.00;0.00;;;;;;;28.56;nan;99806.59;5046989;28;20070;-84
2023/07/15 06:12:45;;;;;;;0.00;0.00;;;;;;;28.97;nan;99797.94;5040058;28;20328;-84
2023/07/15 06:15:10;;;;;;;0.00;0.00;;;;;;;29.24;nan;99799.25;5052041;28;20116;-84
2023/07/15 06:17:35;;;;;;;0.00;0.00;;;;;;;29.32;nan;99810.28;5044344;28;20663;-84
2023/07/15 06:20:00;;;;;;;0.00;0.00;;;;;;;29.42;nan;99810.13;5057222;28;20064;-85
2023/07/15 06:22:26;;;;;;;0.00;0.00;;;;;;;29.67;nan;99801.91;5036552;28;20268;-84
2023/07/15 06:24:51;;;;;;;0.00;0.00;;;;;;;29.86;nan;99802.66;5043555;28;20329;-82
2023/07/15 06:27:17;;;;;;;0.00;0.00;;;;;;;30.21;nan;99795.78;5042527;28;20041;-83
2023/07/15 06:29:43;;;;;;;0.00;0.00;;;;;;;30.64;nan;99787.38;5047563;28;20133;-84
2023/07/15 06:32:09;;;;;;;0.00;0.00;;;;;;;30.81;nan;99781.28;5028671;28;20523;-85
2023/07/15 06:34:34;;;;;;;0.00;0.00;;;;;;;31.13;nan;99776.81;5047043;28;20045;-83
2023/07/15 06:36:59;;;;;;;0.00;0.00;;;;;;;31.42;nan;99776.44;5051235;28;20033;-84
2023/07/15 06:39:25;;;;;;;0.00;0.00;;;;;;;31.72;nan;99787.75;5054839;28;20029;-84
2023/07/15 06:41:51;;;;;;;0.00;0.00;;;;;;;31.85;nan;99791.56;5057405;28;20040;-84
2023/07/15 06:44:16;;;;;;;0.00;0.00;;;;;;;31.99;nan;99792.31;5050348;28;20401;-84
2023/07/15 06:46:41;;;;;;;0.00;0.00;;;;;;;32.51;nan;99797.25;5044032;28;20049;-83
2023/07/15 06:49:07;;;;;;;0.00;0.00;;;;;;;33.20;nan;99797.44;5048886;28;20045;-85
2023/07/15 06:51:32;;;;;;;0.00;0.00;;;;;;;33.37;nan;99804.88;5056795;28;20056;-84
2023/07/15 06:53:58;;;;;;;0.00;0.00;;;;;;;33.00;nan;99800.75;5037098;28;20057;-85
2023/07/15 06:56:23;;;;;;;0.00;0.00;;;;;;;32.61;nan;99818.88;5046112;28;20049;-84
2023/07/15 06:58:48;;;;;;;0.00;0.00;;;;;;;32.21;nan;99813.34;5051172;28;20109;-83
2023/07/15 07:01:13;;;;;;;0.00;0.00;;;;;;;31.84;nan;99809.84;5044599;28;20037;-84
2023/07/15 07:03:39;;;;;;;0.00;0.00;;;;;;;31.46;nan;99809.41;5054542;28;20029;-82
2023/07/15 07:06:04;;;;;;;0.00;0.00;;;;;;;31.21;nan;99808.84;5050928;28;20030;-84
2023/07/15 07:08:29;;;;;;;0.00;0.00;;;;;;;30.99;nan;99806.88;5046825;28;20041;-84
2023/07/15 07:10:55;;;;;;;0.00;0.00;;;;;;;30.80;nan;99809.72;5053625;28;20029;-84
2023/07/15 07:13:20;;;;;;;0.00;0.00;;;;;;;30.58;nan;99802.22;5048045;28;20560;-84
2023/07/15 07:15:47;;;;;;;0.00;0.00;;;;;;;30.42;nan;99804.44;5049564;28;20274;-84
2023/07/15 07:18:12;;;;;;;0.00;0.00;;;;;;;30.36;nan;99802.91;5048918;28;20030;-83
2023/07/15 07:20:38;;;;;;;0.00;0.00;;;;;;;30.29;nan;99813.41;5048863;28;20103;-83
2023/07/15 07:23:05;;;;;;;0.00;0.00;;;;;;;30.14;nan;99814.47;5051169;28;20034;-83
2023/07/15 07:25:30;;;;;;;0.00;0.00;;;;;;;30.10;nan;99807.97;5055169;28;20067;-86
2023/07/15 07:27:56;;;;;;;0.00;0.00;;;;;;;30.14;nan;99810.94;5056321;28;20033;-84
2023/07/15 07:30:22;;;;;;;0.00;0.00;;;;;;;30.15;nan;99809.81;5047373;28;20125;-83
2023/07/15 07:32:48;;;;;;;0.00;0.00;;;;;;;30.12;nan;99819.41;5053031;28;20385;-84
2023/07/15 07:35:14;;;;;;;0.00;0.00;;;;;;;30.08;nan;99818.38;5052555;28;20040;-86
2023/07/15 07:37:39;;;;;;;0.00;0.00;;;;;;;29.98;nan;99824.81;5050112;28;20033;-84
2023/07/15 07:40:06;;;;;;;0.00;0.00;;;;;;;29.78;nan;99822.44;5052137;28;20048;-83
2023/07/15 07:42:31;;;;;;;0.00;0.00;;;;;;;29.62;nan;99821.81;5058176;28;20097;-84
2023/07/15 07:44:56;;;;;;;0.00;0.00;;;;;;;29.41;nan;99822.16;5057492;28;20049;-83
2023/07/15 07:47:21;;;;;;;0.00;0.00;;;;;;;29.19;nan;99811.81;5059660;28;20283;-84
2023/07/15 07:49:47;;;;;;;0.00;0.00;;;;;;;29.07;nan;99816.06;5058375;28;20299;-85
2023/07/15 07:52:12;;;;;;;0.00;0.00;;;;;;;29.06;nan;99812.53;5059683;28;20268;-84
2023/07/15 07:54:39;;;;;;;0.00;0.00;;;;;;;29.20;nan;99815.38;5056678;28;20304;-83
2023/07/15 07:57:05;;;;;;;0.00;0.00;;;;;;;29.48;nan;99804.59;5052113;28;20702;-84
2023/07/15 07:59:30;;;;;;;0.00;0.00;;;;;;;29.70;nan;99807.56;5052121;28;20029;-84
2023/07/15 08:01:55;;;;;;;0.00;0.00;;;;;;;29.93;nan;99802.28;5058667;28;20070;-83
2023/07/15 08:04:20;;;;;;;0.00;0.00;;;;;;;30.03;nan;99815.75;5058293;28;20290;-83
2023/07/15 08:06:46;;;;;;;0.00;0.00;;;;;;;30.10;nan;99821.63;5057946;28;20278;-84
2023/07/15 08:09:11;;;;;;;0.00;0.00;;;;;;;30.24;nan;99816.19;5059671;28;20286;-83
2023/07/15 08:11:37;;;;;;;0.00;0.00;;;;;;;30.39;nan;99821.41;5051955;28;20116;-83
2023/07/15 08:14:02;;;;;;;0.00;0.00;;;;;;;30.62;nan;99807.88;5060513;28;20051;-84
2023/07/15 08:16:37;;;;;;;0.00;0.00;;;;;;;31.20;nan;99811.88;5051058;28;20033;-84
2023/07/15 08:19:04;;;;;;;0.00;0.00;;;;;;;31.67;nan;99815.22;5035343;28;20053;-85
2023/07/15 08:21:30;;;;;;;0.00;0.00;;;;;;;32.49;nan;99816.69;5050022;28;20068;-83
2023/07/15 08:23:56;;;;;;;0.00;0.00;;;;;;;33.08;nan;99829.31;5054009;28;20022;-84
2023/07/15 08:26:23;;;;;;;0.00;0.00;;;;;;;34.15;nan;99838.84;5056979;28;20799;-83
2023/07/15 08:28:48;;;;;;;0.00;0.00;;;;;;;34.61;nan;99840.00;5056818;28;20166;-84
2023/07/15 08:31:14;;;;;;;0.00;0.00;;;;;;;34.46;nan;99849.56;5051874;28;20084;-83
2023/07/15 08:33:39;;;;;;;0.00;0.00;;;;;;;34.38;nan;99850.44;5058361;28;20052;-85
2023/07/15 08:36:05;;;;;;;0.00;0.00;;;;;;;35.28;nan;99854.88;5046592;28;20052;-84
2023/07/15 08:38:30;;;;;;;0.00;0.00;;;;;;;36.11;nan;99858.72;5052701;28;20264;-83
2023/07/15 08:41:00;;;;;;;0.00;0.00;;;;;;;36.62;nan;99869.53;5053129;28;20409;-88
2023/07/15 08:43:25;;;;;;;0.00;0.00;;;;;;;37.03;nan;99871.22;5059733;28;20036;-83
2023/07/15 08:45:55;;;;;;;0.00;0.00;;;;;;;37.23;nan;99866.75;5055716;28;20033;-86
2023/07/15 08:48:20;;;;;;;0.00;0.00;;;;;;;36.93;nan;99866.19;5060674;28;20576;-84
2023/07/15 08:50:46;;;;;;;0.00;0.00;;;;;;;36.60;nan;99877.31;5041493;28;20045;-84
2023/07/15 08:53:14;;;;;;;0.00;0.00;;;;;;;36.38;nan;99871.06;5052375;28;20041;-83
2023/07/15 08:55:40;;;;;;;0.00;0.00;;;;;;;36.42;nan;99871.97;5059047;28;20405;-84
2023/07/15 08:58:07;;;;;;;0.00;0.00;;;;;;;36.04;nan;99866.69;5047504;28;20044;-84
2023/07/15 09:00:32;;;;;;;0.00;0.00;;;;;;;36.44;nan;99866.94;5060170;28;20035;-84
2023/07/15 09:02:57;;;;;;;0.00;0.00;;;;;;;37.34;nan;99861.56;5057026;28;20489;-84
2023/07/15 09:05:23;;;;;;;0.00;0.00;;;;;;;37.85;nan;99866.59;5060190;28;20275;-85
2023/07/15 09:07:55;;;;;;;0.00;0.00;;;;;;;38.35;nan;99860.47;5055656;28;20485;-85
2023/07/15 09:10:20;;;;;;;0.00;0.00;;;;;;;38.26;nan;99862.63;5043342;28;20276;-84
2023/07/15 09:12:46;;;;;;;0.00;0.00;;;;;;;37.83;nan;99856.72;5055759;28;20653;-82
2023/07/15 09:15:13;;;;;;;0.00;0.00;;;;;;;37.35;nan;99858.47;5054584;28;20033;-84
2023/07/15 09:17:40;;;;;;;0.00;0.00;;;;;;;37.31;nan;99852.03;5053137;28;20036;-84
2023/07/15 09:20:17;;;;;;;0.00;0.00;;;;;;;36.77;nan;99857.81;5035243;28;20061;-83
2023/07/15 09:22:42;;;;;;;0.00;0.00;;;;;;;36.73;nan;99843.09;5056545;28;20052;-83
2023/07/15 09:25:10;;;;;;;0.00;0.00;;;;;;;36.68;nan;99846.09;5051385;28;20041;-83
2023/07/15 09:27:41;;;;;;;0.00;0.00;;;;;;;37.42;nan;99846.81;5059700;28;20292;-84
2023/07/15 09:30:08;;;;;;;0.00;0.00;;;;;;;37.69;nan;99856.31;5050148;28;20036;-84
2023/07/15 09:32:33;;;;;;;0.00;0.00;;;;;;;37.56;nan;99857.50;5055296;28;20028;-84
2023/07/15 09:34:58;;;;;;;0.00;0.00;;;;;;;37.46;nan;99847.72;5055621;28;20025;-84
2023/07/15 09:37:31;;;;;;;0.00;0.00;;;;;;;37.10;nan;99854.16;5046030;28;20069;-85
2023/07/15 09:40:00;;;;;;;0.00;0.00;;;;;;;36.77;nan;99863.31;5037290;28;20040;-83
2023/07/15 09:42:28;;;;;;;0.00;0.00;;;;;;;36.64;nan;99859.78;5040122;28;20026;-84
2023/07/15 09:44:54;;;;;;;0.00;0.00;;;;;;;36.81;nan;99861.50;5054510;28;20056;-84
2023/07/15 09:47:20;;;;;;;0.00;0.00;;;;;;;37.10;nan;99862.41;5071241;28;20373;-84
2023/07/15 09:49:45;;;;;;;0.00;0.00;;;;;;;37.03;nan;99868.47;5048077;28;20528;-83
2023/07/15 09:52:13;;;;;;;0.00;0.00;;;;;;;36.75;nan;99865.63;5051448;28;20033;-85
2023/07/15 09:54:44;;;;;;;0.00;0.00;;;;;;;36.44;nan;99860.63;5049397;28;20033;-83
2023/07/15 09:57:13;;;;;;;0.00;0.00;;;;;;;35.99;nan;99872.41;5061155;28;20037;-84
2023/07/15 09:59:48;;;;;;;0.00;0.00;;;;;;;35.34;nan;99869.22;5050555;28;20040;-85
2023/07/15 10:02:22;;;;;;;0.00;0.00;;;;;;;34.53;nan;99873.78;5058990;28;20573;-83
2023/07/15 10:04:49;;;;;;;0.00;0.00;;;;;;;34.07;nan;99880.81;5054660;28;20037;-85
2023/07/15 10:07:15;;;;;;;0.00;0.00;;;;;;;33.50;nan;99873.56;5047489;28;20041;-83
2023/07/15 10:09:40;;;;;;;0.00;0.00;;;;;;;33.12;nan;99882.34;5038336;28;20037;-90
2023/07/15 10:12:08;;;;;;;0.00;0.00;;;;;;;32.78;nan;99878.34;5042447;28;20037;-86
2023/07/15 10:14:34;;;;;;;0.00;0.00;;;;;;;32.61;nan;99883.72;5051602;28;20116;-86
2023/07/15 10:17:11;;;;;;;0.00;0.00;;;;;;;32.39;nan;99896.31;5052056;28;20092;-87
2023/07/15 10:19:52;;;;;;;0.00;0.00;;;;;;;32.24;nan;99891.25;5035588;28;20061;-83
2023/07/15 10:22:21;;;;;;;0.00;0.00;;;;;;;32.12;nan;99886.34;5066889;28;20037;-84
2023/07/15 10:25:01;;;;;;;0.00;0.00;;;;;;;31.97;nan;99890.25;5053057;28;20029;-87
2023/07/15 10:27:32;;;;;;;0.00;0.00;;;;;;;32.18;nan;99890.56;5046821;28;20496;-86
2023/07/15 10:30:22;;;;;;;0.00;0.00;;;;;;;32.93;nan;99890.81;5050585;28;20057;-85
2023/07/15 10:33:08;;;;;;;0.00;0.00;;;;;;;33.74;nan;99884.88;5052847;28;20048;-86
2023/07/15 10:35:40;;;;;;;0.00;0.00;;;;;;;33.97;nan;99887.44;5049786;28;20098;-87
2023/07/15 10:38:23;;;;;;;0.00;0.00;;;;;;;33.99;nan;99885.16;5059481;23;20507;-89
2023/07/15 10:40:57;;;;;;;0.00;0.00;;;;;;;33.89;nan;99880.03;5046199;28;20037;-89
2023/07/15 10:43:35;;;;;;;0.00;0.00;;;;;;;33.65;nan;99886.00;5047102;28;20040;-88
2023/07/15 10:46:17;;;;;;;0.00;0.00;;;;;;;33.59;nan;99885.38;5039891;28;20041;-89
2023/07/15 10:48:42;;;;;;;0.00;0.00;;;;;;;33.53;nan;99895.63;5049361;28;20029;-87
2023/07/15 10:51:09;;;;;;;0.00;0.00;;;;;;;33.47;nan;99890.66;5044736;28;20056;-87
2023/07/15 10:53:35;;;;;;;0.00;0.00;;;;;;;33.29;nan;99884.31;5036243;28;20502;-88
2023/07/15 10:56:03;;;;;;;0.00;0.00;;;;;;;33.27;nan;99875.59;5042915;28;20104;-89
2023/07/15 10:58:32;;;;;;;0.00;0.00;;;;;;;33.76;nan;99876.31;5049847;28;20041;-89
2023/07/15 11:01:02;;;;;;;0.00;0.00;;;;;;;34.34;nan;99880.44;5046455;28;20341;-87
2023/07/15 11:03:29;;;;;;;0.00;0.00;;;;;;;35.05;nan;99881.81;5059992;28;20037;-89
2023/07/15 11:06:01;;;;;;;0.00;0.00;;;;;;;35.08;nan;99876.44;5056070;28;20082;-88
2023/07/15 11:08:27;;;;;;;0.00;0.00;;;;;;;34.50;nan;99868.97;5048574;28;20018;-88
2023/07/15 11:11:07;;;;;;;0.00;0.00;;;;;;;33.76;nan;99874.38;5043310;28;20036;-87
2023/07/15 11:13:35;;;;;;;0.00;0.00;;;;;;;33.39;nan;99868.34;5048188;28;20108;-87
2023/07/15 11:16:01;;;;;;;0.00;0.00;;;;;;;33.05;nan;99857.34;5045616;28;20091;-87
2023/07/15 11:18:26;;;;;;;0.00;0.00;;;;;;;32.87;nan;99850.97;5056227;28;20045;-89
2023/07/15 11:20:56;;;;;;;0.00;0.00;;;;;;;32.72;nan;99833.88;5046284;28;20030;-87
2023/07/15 11:23:22;;;;;;;0.00;0.00;;;;;;;32.79;nan;99831.47;5050981;28;20037;-89
2023/07/15 11:25:48;;;;;;;0.00;0.00;;;;;;;32.82;nan;99826.47;5064830;28;20021;-88
2023/07/15 11:28:13;;;;;;;0.00;0.00;;;;;;;32.79;nan;99833.41;5055895;28;20037;-87
2023/07/15 11:30:42;;;;;;;0.00;0.00;;;;;;;32.57;nan;99837.84;5051889;28;20109;-89
2023/07/15 11:33:07;;;;;;;0.00;0.00;;;;;;;32.34;nan;99831.56;5065687;28;20048;-90
2023/07/15 11:35:34;;;;;;;0.00;0.00;;;;;;;32.13;nan;99823.13;5046415;28;20033;-88
2023/07/15 11:38:15;;;;;;;0.00;0.00;;;;;;;31.84;nan;99829.00;5040514;28;20029;-84
2023/07/15 11:41:00;;;;;;;0.00;0.00;;;;;;;31.50;nan;99843.22;5035008;28;20036;-84
2023/07/15 11:43:27;;;;;;;0.00;0.00;;;;;;;31.08;nan;99856.09;5047572;28;20037;-84
2023/07/15 11:45:54;;;;;;;0.00;0.00;;;;;;;30.75;nan;99847.19;5044413;28;20112;-84
2023/07/15 11:48:22;;;;;;;0.00;0.00;;;;;;;30.57;nan;99833.34;5047804;28;20025;-83
2023/07/15 11:50:47;;;;;;;0.00;0.00;;;;;;;30.69;nan;99827.38;5053062;28;20091;-83
2023/07/15 11:53:26;;;;;;;0.00;0.00;;;;;;;30.92;nan;99817.41;5043055;28;20392;-84
2023/07/15 11:55:52;;;;;;;0.00;0.00;;;;;;;31.24;nan;99826.56;5040658;28;20033;-83
2023/07/15 11:58:56;;;;;;;0.00;0.00;;;;;;;31.38;nan;99827.31;5039360;28;20044;-85
2023/07/15 12:01:25;;;;;;;0.00;0.00;;;;;;;31.50;nan;99800.28;5035589;28;20109;-84
2023/07/15 12:03:51;;;;;;;0.00;0.00;;;;;;;31.56;nan;99805.63;5047251;28;20048;-83
2023/07/15 12:06:18;;;;;;;0.00;0.00;;;;;;;31.70;nan;99799.00;5050267;28;20056;-84
2023/07/15 12:08:59;;;;;;;0.00;0.00;;;;;;;31.84;nan;99785.25;5041665;28;20091;-82